Gray Army Air Field Fort Lewis,Tacoma US
ICAO: KGRF
IATA: GRF
Category: Medium
Scheduled Services: No

Elevation: 300 ft
TransAlt. 18000 ft.

Airport Communications:
SEATTLE APP/DEP:120.1
ATIS:124.65
CTAF:119.325
GND/CLNC DEL:121.9
AR OPS:36.1
ARNG OPS:36.55
OPS:32.3
PMSV METRO:134.1
BULLSEYE RDO:36.7
TWR:119.325

KGRF Zoom In..

Runways:

(A) RW 15 length 6125 ft width 150 ft
ILS 108.30 / hdg 151

(B) RW 33 length 6125 ft width 150 ft
---- / hdg 331

Location; KGRF
Day. 30 / Time. 22.58 Zulu
* Altimeter: 30.29
* Temperature: 09° c. 48.2°f.
* Wind from: 200° Speed 10 kn.
Dewpoint: 09° c.
Visibility: 10 Statute Miles.
Clouds: Clear (automated report).

KGRF 302258Z AUTO 20010KT 10SM CLR 09/09 A3029 RMK AO2 SLP262 T00930091 $

Going to: --> -->


Wind From 200°
Speed 10 kn.

 
 
jpsmedia worldairports.se 2020   terms of use